sensor_id;sensor_type;location;lat;lon;timestamp;pressure;altitude;pressure_sealevel;temperature;humidity
16580;BME280;8402;51.466;6.806;2023-10-13T00:02:19;100969.88;;;19.30;100.00
16580;BME280;8402;51.466;6.806;2023-10-13T00:04:50;100969.41;;;19.28;100.00
16580;BME280;8402;51.466;6.806;2023-10-13T00:07:23;100969.13;;;19.33;100.00
16580;BME280;8402;51.466;6.806;2023-10-13T00:09:54;100962.78;;;19.29;100.00
16580;BME280;8402;51.466;6.806;2023-10-13T00:12:26;100962.03;;;19.32;100.00
16580;BME280;8402;51.466;6.806;2023-10-13T00:14:58;100960.06;;;19.33;100.00
16580;BME280;8402;51.466;6.806;2023-10-13T00:17:31;100948.56;;;19.27;100.00
16580;BME280;8402;51.466;6.806;2023-10-13T00:20:03;100947.38;;;19.24;100.00
16580;BME280;8402;51.466;6.806;2023-10-13T00:22:42;100940.22;;;19.20;100.00
16580;BME280;8402;51.466;6.806;2023-10-13T00:25:12;100940.66;;;19.22;100.00
16580;BME280;8402;51.466;6.806;2023-10-13T00:27:49;100937.47;;;19.20;100.00
16580;BME280;8402;51.466;6.806;2023-10-13T00:30:19;100941.38;;;19.19;100.00
16580;BME280;8402;51.466;6.806;2023-10-13T00:33:00;100931.13;;;19.16;100.00
16580;BME280;8402;51.466;6.806;2023-10-13T00:35:31;100929.53;;;19.15;100.00
16580;BME280;8402;51.466;6.806;2023-10-13T00:38:11;100931.47;;;19.14;100.00
16580;BME280;8402;51.466;6.806;2023-10-13T00:40:44;100927.91;;;19.14;100.00
16580;BME280;8402;51.466;6.806;2023-10-13T00:43:20;100927.13;;;19.13;100.00
16580;BME280;8402;51.466;6.806;2023-10-13T00:46:04;100916.91;;;19.14;100.00
16580;BME280;8402;51.466;6.806;2023-10-13T00:48:36;100922.41;;;19.14;100.00
16580;BME280;8402;51.466;6.806;2023-10-13T00:51:19;100913.03;;;19.15;100.00
16580;BME280;8402;51.466;6.806;2023-10-13T00:54:03;100914.63;;;19.16;100.00
16580;BME280;8402;51.466;6.806;2023-10-13T00:56:39;100913.03;;;19.15;100.00
16580;BME280;8402;51.466;6.806;2023-10-13T00:59:16;100895.34;;;19.16;100.00
16580;BME280;8402;51.466;6.806;2023-10-13T01:01:44;100902.44;;;19.17;100.00
16580;BME280;8402;51.466;6.806;2023-10-13T01:04:21;100886.72;;;19.17;100.00
16580;BME280;8402;51.466;6.806;2023-10-13T01:06:50;100894.19;;;19.17;100.00
16580;BME280;8402;51.466;6.806;2023-10-13T01:09:22;100893.41;;;19.16;100.00
16580;BME280;8402;51.466;6.806;2023-10-13T01:11:52;100891.03;;;19.15;100.00
16580;BME280;8402;51.466;6.806;2023-10-13T01:14:21;100887.81;;;19.13;100.00
16580;BME280;8402;51.466;6.806;2023-10-13T01:16:55;100886.25;;;19.12;100.00
16580;BME280;8402;51.466;6.806;2023-10-13T01:19:25;100889.38;;;19.10;100.00
16580;BME280;8402;51.466;6.806;2023-10-13T01:21:56;100885.81;;;19.10;100.00
16580;BME280;8402;51.466;6.806;2023-10-13T01:24:32;100875.25;;;19.12;100.00
16580;BME280;8402;51.466;6.806;2023-10-13T01:27:03;100877.56;;;19.10;100.00
16580;BME280;8402;51.466;6.806;2023-10-13T01:29:44;100880.31;;;19.10;100.00
16580;BME280;8402;51.466;6.806;2023-10-13T01:32:18;100870.91;;;19.11;100.00
16580;BME280;8402;51.466;6.806;2023-10-13T01:34:46;100876.03;;;19.12;100.00
16580;BME280;8402;51.466;6.806;2023-10-13T01:37:16;100867.06;;;19.15;100.00
16580;BME280;8402;51.466;6.806;2023-10-13T01:39:49;100867.47;;;19.17;100.00
16580;BME280;8402;51.466;6.806;2023-10-13T01:42:19;100859.66;;;19.19;100.00
16580;BME280;8402;51.466;6.806;2023-10-13T01:44:49;100860.81;;;19.18;100.00
16580;BME280;8402;51.466;6.806;2023-10-13T01:47:24;100843.13;;;19.19;100.00
16580;BME280;8402;51.466;6.806;2023-10-13T01:49:54;100844.72;;;19.20;100.00
16580;BME280;8402;51.466;6.806;2023-10-13T01:52:25;100840.88;;;19.25;100.00
16580;BME280;8402;51.466;6.806;2023-10-13T01:54:56;100838.53;;;19.27;100.00
16580;BME280;8402;51.466;6.806;2023-10-13T01:57:28;100843.72;;;19.32;100.00
16580;BME280;8402;51.466;6.806;2023-10-13T01:59:55;100832.31;;;19.30;100.00
16580;BME280;8402;51.466;6.806;2023-10-13T02:02:31;100833.03;;;19.27;100.00
16580;BME280;8402;51.466;6.806;2023-10-13T02:04:58;100829.91;;;19.29;100.00
16580;BME280;8402;51.466;6.806;2023-10-13T02:07:29;100827.97;;;19.29;100.00
16580;BME280;8402;51.466;6.806;2023-10-13T02:10:00;100822.88;;;19.31;100.00
16580;BME280;8402;51.466;6.806;2023-10-13T02:12:31;100812.59;;;19.28;100.00
16580;BME280;8402;51.466;6.806;2023-10-13T02:15:04;100811.81;;;19.28;100.00
16580;BME280;8402;51.466;6.806;2023-10-13T02:17:34;100806.31;;;19.28;100.00
16580;BME280;8402;51.466;6.806;2023-10-13T02:20:09;100803.94;;;19.26;100.00
16580;BME280;8402;51.466;6.806;2023-10-13T02:22:42;100792.53;;;19.24;100.00
16580;BME280;8402;51.466;6.806;2023-10-13T02:25:19;100801.50;;;19.21;100.00
16580;BME280;8402;51.466;6.806;2023-10-13T02:28:03;100787.72;;;19.17;100.00
16580;BME280;8402;51.466;6.806;2023-10-13T02:30:37;100798.34;;;19.19;100.00
16580;BME280;8402;51.466;6.806;2023-10-13T02:33:12;100796.00;;;19.21;100.00
16580;BME280;8402;51.466;6.806;2023-10-13T02:35:40;100798.75;;;19.21;100.00
16580;BME280;8402;51.466;6.806;2023-10-13T02:38:20;100792.84;;;19.19;100.00
16580;BME280;8402;51.466;6.806;2023-10-13T02:40:58;100780.56;;;19.13;100.00
16580;BME280;8402;51.466;6.806;2023-10-13T02:43:33;100785.28;;;19.12;100.00
16580;BME280;8402;51.466;6.806;2023-10-13T02:46:01;100781.72;;;19.12;100.00
16580;BME280;8402;51.466;6.806;2023-10-13T02:48:31;100766.81;;;19.13;100.00
16580;BME280;8402;51.466;6.806;2023-10-13T02:51:08;100769.91;;;19.08;100.00
16580;BME280;8402;51.466;6.806;2023-10-13T02:53:45;100769.91;;;19.08;100.00
16580;BME280;8402;51.466;6.806;2023-10-13T02:56:19;100763.53;;;19.04;100.00
16580;BME280;8402;51.466;6.806;2023-10-13T02:58:53;100760.38;;;19.02;100.00
16580;BME280;8402;51.466;6.806;2023-10-13T03:01:20;100759.59;;;19.01;100.00
16580;BME280;8402;51.466;6.806;2023-10-13T03:03:56;100756.47;;;19.03;100.00
16580;BME280;8402;51.466;6.806;2023-10-13T03:06:26;100752.53;;;19.04;100.00
16580;BME280;8402;51.466;6.806;2023-10-13T03:09:03;100742.31;;;19.01;100.00
16580;BME280;8402;51.466;6.806;2023-10-13T03:11:44;100743.44;;;19.00;100.00
16580;BME280;8402;51.466;6.806;2023-10-13T03:14:16;100736.81;;;19.01;100.00
16580;BME280;8402;51.466;6.806;2023-10-13T03:16:52;100736.03;;;19.04;100.00
16580;BME280;8402;51.466;6.806;2023-10-13T03:19:22;100726.63;;;19.05;100.00
16580;BME280;8402;51.466;6.806;2023-10-13T03:21:49;100727.38;;;19.02;100.00
16580;BME280;8402;51.466;6.806;2023-10-13T03:24:32;100724.94;;;18.96;100.00
16580;BME280;8402;51.466;6.806;2023-10-13T03:27:03;100716.28;;;18.94;100.00
16580;BME280;8402;51.466;6.806;2023-10-13T03:29:39;100712.38;;;18.95;100.00
16580;BME280;8402;51.466;6.806;2023-10-13T03:32:10;100710.78;;;18.94;100.00
16580;BME280;8402;51.466;6.806;2023-10-13T03:34:44;100706.88;;;18.95;100.00
16580;BME280;8402;51.466;6.806;2023-10-13T03:37:38;100703.81;;;19.01;100.00
16580;BME280;8402;51.466;6.806;2023-10-13T03:40:09;100695.97;;;19.03;100.00
16580;BME280;8402;51.466;6.806;2023-10-13T03:43:04;100697.97;;;19.06;100.00
16580;BME280;8402;51.466;6.806;2023-10-13T03:45:38;100693.72;;;19.12;100.00
16580;BME280;8402;51.466;6.806;2023-10-13T03:48:10;100678.81;;;19.13;100.00
16580;BME280;8402;51.466;6.806;2023-10-13T03:50:57;100676.91;;;19.17;100.00
16580;BME280;8402;51.466;6.806;2023-10-13T03:53:35;100670.63;;;19.20;100.00
16580;BME280;8402;51.466;6.806;2023-10-13T03:56:21;100666.38;;;19.22;100.00
16580;BME280;8402;51.466;6.806;2023-10-13T03:59:10;100660.88;;;19.22;100.00
16580;BME280;8402;51.466;6.806;2023-10-13T04:01:47;100662.81;;;19.22;100.00
16580;BME280;8402;51.466;6.806;2023-10-13T04:04:26;100646.31;;;19.22;100.00
16580;BME280;8402;51.466;6.806;2023-10-13T04:07:15;100649.06;;;19.22;100.00
16580;BME280;8402;51.466;6.806;2023-10-13T04:09:57;100645.19;;;19.27;100.00
16580;BME280;8402;51.466;6.806;2023-10-13T04:12:40;100647.53;;;19.24;100.00
16580;BME280;8402;51.466;6.806;2023-10-13T04:15:25;100634.47;;;19.18;100.00
16580;BME280;8402;51.466;6.806;2023-10-13T04:18:04;100629.38;;;19.20;100.00
16580;BME280;8402;51.466;6.806;2023-10-13T04:20:52;100621.91;;;19.17;100.00
16580;BME280;8402;51.466;6.806;2023-10-13T04:23:35;100619.88;;;19.14;100.00
16580;BME280;8402;51.466;6.806;2023-10-13T04:26:24;100617.88;;;19.11;100.00
16580;BME280;8402;51.466;6.806;2023-10-13T04:29:14;100613.56;;;19.10;100.00
16580;BME280;8402;51.466;6.806;2023-10-13T04:31:58;100600.97;;;19.09;100.00
16580;BME280;8402;51.466;6.806;2023-10-13T04:34:27;100605.69;;;19.08;100.00
16580;BME280;8402;51.466;6.806;2023-10-13T04:37:05;100603.28;;;19.07;100.00
16580;BME280;8402;51.466;6.806;2023-10-13T04:39:47;100603.28;;;19.07;100.00
16580;BME280;8402;51.466;6.806;2023-10-13T04:42:24;100591.41;;;18.99;100.00
16580;BME280;8402;51.466;6.806;2023-10-13T04:45:08;100590.25;;;19.00;100.00
16580;BME280;8402;51.466;6.806;2023-10-13T04:48:08;100589.91;;;19.02;100.00
16580;BME280;8402;51.466;6.806;2023-10-13T04:50:46;100593.06;;;19.04;100.00
16580;BME280;8402;51.466;6.806;2023-10-13T04:53:18;100589.09;;;19.01;100.00
16580;BME280;8402;51.466;6.806;2023-10-13T04:55:57;100582.81;;;19.01;100.00
16580;BME280;8402;51.466;6.806;2023-10-13T04:58:43;100572.59;;;19.01;100.00
16580;BME280;8402;51.466;6.806;2023-10-13T05:01:31;100555.31;;;19.01;100.00
16580;BME280;8402;51.466;6.806;2023-10-13T05:04:25;100550.16;;;18.95;100.00
16580;BME280;8402;51.466;6.806;2023-10-13T05:07:05;100546.22;;;18.96;100.00
16580;BME280;8402;51.466;6.806;2023-10-13T05:09:48;100546.16;;;18.93;100.00
16580;BME280;8402;51.466;6.806;2023-10-13T05:12:30;100550.88;;;18.92;100.00
16580;BME280;8402;51.466;6.806;2023-10-13T05:15:12;100545.81;;;18.94;100.00
16580;BME280;8402;51.466;6.806;2023-10-13T05:17:55;100537.91;;;18.93;100.00
16580;BME280;8402;51.466;6.806;2023-10-13T05:20:40;100541.91;;;18.95;100.00
16580;BME280;8402;51.466;6.806;2023-10-13T05:23:22;100549.75;;;18.93;100.00
16580;BME280;8402;51.466;6.806;2023-10-13T05:26:04;100545.81;;;18.94;100.00
16580;BME280;8402;51.466;6.806;2023-10-13T05:28:46;100544.66;;;18.95;100.00
16580;BME280;8402;51.466;6.806;2023-10-13T05:31:44;100543.09;;;18.98;100.00
16580;BME280;8402;51.466;6.806;2023-10-13T05:34:26;100543.56;;;19.04;100.00
16580;BME280;8402;51.466;6.806;2023-10-13T05:37:11;100540.44;;;19.05;100.00
16580;BME280;8402;51.466;6.806;2023-10-13T05:39:54;100550.72;;;19.12;100.00
16580;BME280;8402;51.466;6.806;2023-10-13T05:42:36;100544.88;;;19.17;100.00
16580;BME280;8402;51.466;6.806;2023-10-13T05:45:18;100548.03;;;19.19;100.00
16580;BME280;8402;51.466;6.806;2023-10-13T05:48:29;100566.97;;;19.24;100.00
16580;BME280;8402;51.466;6.806;2023-10-13T05:51:19;100559.13;;;19.26;100.00
16580;BME280;8402;51.466;6.806;2023-10-13T05:54:16;100568.22;;;19.30;100.00
16580;BME280;8402;51.466;6.806;2023-10-13T05:57:01;100576.88;;;19.32;100.00
16580;BME280;8402;51.466;6.806;2023-10-13T05:59:44;100574.44;;;19.27;100.00
16580;BME280;8402;51.466;6.806;2023-10-13T06:02:26;100559.97;;;19.30;100.00
16580;BME280;8402;51.466;6.806;2023-10-13T06:05:10;100554.47;;;19.34;100.00
16580;BME280;8402;51.466;6.806;2023-10-13T06:07:52;100543.09;;;19.35;100.00
16580;BME280;8402;51.466;6.806;2023-10-13T06:10:38;100528.94;;;19.33;100.00
16580;BME280;8402;51.466;6.806;2023-10-13T06:13:20;100534.44;;;19.33;100.00
16580;BME280;8402;51.466;6.806;2023-10-13T06:16:04;100521.00;;;19.28;100.00
16580;BME280;8402;51.466;6.806;2023-10-13T06:18:50;100513.94;;;19.27;100.00
16580;BME280;8402;51.466;6.806;2023-10-13T06:21:32;100505.28;;;19.25;100.00
16580;BME280;8402;51.466;6.806;2023-10-13T06:24:14;100506.03;;;19.22;100.00
16580;BME280;8402;51.466;6.806;2023-10-13T06:26:59;100515.44;;;19.21;100.00
16580;BME280;8402;51.466;6.806;2023-10-13T06:29:42;100519.03;;;19.25;100.00
16580;BME280;8402;51.466;6.806;2023-10-13T06:32:13;100510.00;;;19.24;100.00
16580;BME280;8402;51.466;6.806;2023-10-13T06:34:43;100501.34;;;19.26;100.00
16580;BME280;8402;51.466;6.806;2023-10-13T06:37:18;100503.69;;;19.24;100.00
16580;BME280;8402;51.466;6.806;2023-10-13T06:39:59;100497.44;;;19.27;100.00
16580;BME280;8402;51.466;6.806;2023-10-13T06:42:35;100495.84;;;19.26;100.00
16580;BME280;8402;51.466;6.806;2023-10-13T06:45:09;100491.13;;;19.27;100.00
16580;BME280;8402;51.466;6.806;2023-10-13T06:47:43;100492.75;;;19.31;100.00
16580;BME280;8402;51.466;6.806;2023-10-13T06:50:14;100493.16;;;19.33;100.00
16580;BME280;8402;51.466;6.806;2023-10-13T06:52:46;100502.22;;;19.34;100.00
16580;BME280;8402;51.466;6.806;2023-10-13T06:55:17;100499.06;;;19.35;100.00
16580;BME280;8402;51.466;6.806;2023-10-13T06:57:53;100493.56;;;19.35;100.00
16580;BME280;8402;51.466;6.806;2023-10-13T07:00:27;100491.25;;;19.37;100.00
16580;BME280;8402;51.466;6.806;2023-10-13T07:03:02;100492.81;;;19.38;100.00
16580;BME280;8402;51.466;6.806;2023-10-13T07:05:36;100499.91;;;19.39;100.00
16580;BME280;8402;51.466;6.806;2023-10-13T07:08:09;100500.75;;;19.43;100.00
16580;BME280;8402;51.466;6.806;2023-10-13T07:10:47;100504.69;;;19.49;100.00
16580;BME280;8402;51.466;6.806;2023-10-13T07:13:21;100498.84;;;19.55;100.00
16580;BME280;8402;51.466;6.806;2023-10-13T07:15:55;100484.72;;;19.56;100.00
16580;BME280;8402;51.466;6.806;2023-10-13T07:18:35;100496.19;;;19.58;100.00
16580;BME280;8402;51.466;6.806;2023-10-13T07:21:16;100491.47;;;19.59;100.00
16580;BME280;8402;51.466;6.806;2023-10-13T07:23:51;100477.31;;;19.64;100.00
16580;BME280;8402;51.466;6.806;2023-10-13T07:26:35;100478.16;;;19.71;100.00
16580;BME280;8402;51.466;6.806;2023-10-13T07:29:13;100471.13;;;19.77;100.00
16580;BME280;8402;51.466;6.806;2023-10-13T07:31:43;100465.66;;;19.81;100.00
16580;BME280;8402;51.466;6.806;2023-10-13T07:34:14;100468.06;;;19.86;100.00
16580;BME280;8402;51.466;6.806;2023-10-13T07:36:53;100465.72;;;19.88;100.00
16580;BME280;8402;51.466;6.806;2023-10-13T07:39:28;100469.69;;;19.94;100.00
16580;BME280;8402;51.466;6.806;2023-10-13T07:42:02;100470.88;;;19.93;100.00
16580;BME280;8402;51.466;6.806;2023-10-13T07:44:45;100460.25;;;19.99;100.00
16580;BME280;8402;51.466;6.806;2023-10-13T07:47:15;100458.28;;;19.99;100.00
16580;BME280;8402;51.466;6.806;2023-10-13T07:49:47;100468.97;;;20.04;100.00
16580;BME280;8402;51.466;6.806;2023-10-13T07:52:18;100459.94;;;20.11;100.00
16580;BME280;8402;51.466;6.806;2023-10-13T07:55:03;100454.91;;;20.24;100.00
16580;BME280;8402;51.466;6.806;2023-10-13T07:57:47;100446.31;;;20.36;100.00
16580;BME280;8402;51.466;6.806;2023-10-13T08:00:28;100444.78;;;20.49;100.00
16580;BME280;8402;51.466;6.806;2023-10-13T08:03:14;100440.91;;;20.61;100.00
16580;BME280;8402;51.466;6.806;2023-10-13T08:06:09;100438.56;;;20.67;100.00
16580;BME280;8402;51.466;6.806;2023-10-13T08:08:53;100437.38;;;20.68;100.00
16580;BME280;8402;51.466;6.806;2023-10-13T08:11:34;100424.38;;;20.68;100.00
16580;BME280;8402;51.466;6.806;2023-10-13T08:14:06;100423.56;;;20.60;100.00
16580;BME280;8402;51.466;6.806;2023-10-13T08:17:07;100417.66;;;20.62;100.00
16580;BME280;8402;51.466;6.806;2023-10-13T08:19:38;100414.94;;;20.66;100.00
16580;BME280;8402;51.466;6.806;2023-10-13T08:22:13;100417.28;;;20.71;100.00
16580;BME280;8402;51.466;6.806;2023-10-13T08:24:58;100418.88;;;20.75;100.00
16580;BME280;8402;51.466;6.806;2023-10-13T08:27:40;100419.69;;;20.79;100.00
16580;BME280;8402;51.466;6.806;2023-10-13T08:30:33;100411.41;;;20.83;100.00
16580;BME280;8402;51.466;6.806;2023-10-13T08:33:21;100411.03;;;20.88;100.00
16580;BME280;8402;51.466;6.806;2023-10-13T08:35:54;100400.00;;;20.95;100.00
16580;BME280;8402;51.466;6.806;2023-10-13T08:38:44;100399.22;;;20.98;100.00
16580;BME280;8402;51.466;6.806;2023-10-13T08:41:22;100389.75;;;20.99;100.00
16580;BME280;8402;51.466;6.806;2023-10-13T08:44:02;100392.94;;;21.01;100.00
16580;BME280;8402;51.466;6.806;2023-10-13T08:46:38;100385.81;;;21.07;100.00
16580;BME280;8402;51.466;6.806;2023-10-13T08:49:23;100381.09;;;21.11;100.00
16580;BME280;8402;51.466;6.806;2023-10-13T08:51:57;100376.75;;;21.17;100.00
16580;BME280;8402;51.466;6.806;2023-10-13T08:54:56;100374.78;;;21.22;100.00
16580;BME280;8402;51.466;6.806;2023-10-13T08:57:51;100378.34;;;21.26;100.00
16580;BME280;8402;51.466;6.806;2023-10-13T09:00:29;100379.16;;;21.30;100.00
16580;BME280;8402;51.466;6.806;2023-10-13T09:03:20;100377.16;;;21.41;100.00
16580;BME280;8402;51.466;6.806;2023-10-13T09:06:12;100361.00;;;21.47;100.00
16580;BME280;8402;51.466;6.806;2023-10-13T09:08:42;100371.22;;;21.57;100.00
16580;BME280;8402;51.466;6.806;2023-10-13T09:11:31;100375.53;;;21.68;100.00
16580;BME280;8402;51.466;6.806;2023-10-13T09:14:16;100369.97;;;21.83;100.00
16580;BME280;8402;51.466;6.806;2023-10-13T09:17:02;100368.34;;;21.96;100.00
16580;BME280;8402;51.466;6.806;2023-10-13T09:19:47;100356.50;;;21.99;100.00
16580;BME280;8402;51.466;6.806;2023-10-13T09:22:26;100361.25;;;22.09;100.00
16580;BME280;8402;51.466;6.806;2023-10-13T09:24:55;100359.59;;;22.19;100.00
16580;BME280;8402;51.466;6.806;2023-10-13T09:27:29;100351.28;;;22.30;100.00
16580;BME280;8402;51.466;6.806;2023-10-13T09:29:57;100350.78;;;22.42;100.00
16580;BME280;8402;51.466;6.806;2023-10-13T09:32:35;100351.16;;;22.51;100.00
16580;BME280;8402;51.466;6.806;2023-10-13T09:35:17;100332.16;;;22.53;100.00
16580;BME280;8402;51.466;6.806;2023-10-13T09:37:53;100340.41;;;22.60;100.00
16580;BME280;8402;51.466;6.806;2023-10-13T09:40:23;100332.47;;;22.66;100.00
16580;BME280;8402;51.466;6.806;2023-10-13T09:43:01;100341.16;;;22.64;100.00
16580;BME280;8402;51.466;6.806;2023-10-13T09:45:35;100329.31;;;22.67;100.00
16580;BME280;8402;51.466;6.806;2023-10-13T09:48:10;100328.81;;;22.79;100.00
16580;BME280;8402;51.466;6.806;2023-10-13T09:50:45;100330.75;;;22.90;100.00
16580;BME280;8402;51.466;6.806;2023-10-13T09:53:19;100331.47;;;22.97;100.00
16580;BME280;8402;51.466;6.806;2023-10-13T09:55:54;100318.84;;;22.96;100.00
16580;BME280;8402;51.466;6.806;2023-10-13T09:58:29;100317.97;;;23.03;100.00
16580;BME280;8402;51.466;6.806;2023-10-13T10:01:06;100316.38;;;23.05;100.00
16580;BME280;8402;51.466;6.806;2023-10-13T10:03:44;100321.88;;;23.09;100.00
16580;BME280;8402;51.466;6.806;2023-10-13T10:06:21;100310.75;;;23.16;100.00
16580;BME280;8402;51.466;6.806;2023-10-13T10:09:07;100309.91;;;23.19;100.00
16580;BME280;8402;51.466;6.806;2023-10-13T10:11:52;100305.16;;;23.23;100.00
16580;BME280;8402;51.466;6.806;2023-10-13T10:14:35;100309.78;;;23.33;100.00
16580;BME280;8402;51.466;6.806;2023-10-13T10:17:13;100307.44;;;23.28;99.51
16580;BME280;8402;51.466;6.806;2023-10-13T10:19:48;100300.84;;;23.19;96.45
16580;BME280;8402;51.466;6.806;2023-10-13T10:22:27;100287.75;;;23.23;97.16
16580;BME280;8402;51.466;6.806;2023-10-13T10:25:04;100296.38;;;23.28;98.47
16580;BME280;8402;51.466;6.806;2023-10-13T10:27:55;100303.50;;;23.29;96.82
16580;BME280;8402;51.466;6.806;2023-10-13T10:30:26;100286.91;;;23.29;95.79
16580;BME280;8402;51.466;6.806;2023-10-13T10:33:01;100289.28;;;23.27;93.67
16580;BME280;8402;51.466;6.806;2023-10-13T10:35:36;100285.31;;;23.28;92.64
16580;BME280;8402;51.466;6.806;2023-10-13T10:38:08;100289.28;;;23.27;93.61
16580;BME280;8402;51.466;6.806;2023-10-13T10:40:53;100299.56;;;23.27;93.15
16580;BME280;8402;51.466;6.806;2023-10-13T10:43:28;100296.28;;;23.39;92.68
16580;BME280;8402;51.466;6.806;2023-10-13T10:46:09;100288.31;;;23.45;94.41
16580;BME280;8402;51.466;6.806;2023-10-13T10:48:44;100291.81;;;23.49;92.33
16580;BME280;8402;51.466;6.806;2023-10-13T10:51:15;100285.00;;;23.57;93.62
16580;BME280;8402;51.466;6.806;2023-10-13T10:53:49;100277.81;;;23.67;92.93
16580;BME280;8402;51.466;6.806;2023-10-13T10:56:23;100273.41;;;23.69;90.38
16580;BME280;8402;51.466;6.806;2023-10-13T10:59:05;100272.53;;;23.76;93.30
16580;BME280;8402;51.466;6.806;2023-10-13T11:01:46;100277.66;;;23.77;90.96
16580;BME280;8402;51.466;6.806;2023-10-13T11:04:20;100268.13;;;23.78;90.70
16580;BME280;8402;51.466;6.806;2023-10-13T11:07:01;100256.28;;;23.78;90.74
16580;BME280;8402;51.466;6.806;2023-10-13T11:09:34;100253.13;;;23.79;90.37
16580;BME280;8402;51.466;6.806;2023-10-13T11:12:16;100243.69;;;23.73;87.62
16580;BME280;8402;51.466;6.806;2023-10-13T11:15:00;100241.31;;;23.72;87.80
16580;BME280;8402;51.466;6.806;2023-10-13T11:17:32;100231.75;;;23.76;88.51
16580;BME280;8402;51.466;6.806;2023-10-13T11:20:17;100232.81;;;23.86;89.97
16580;BME280;8402;51.466;6.806;2023-10-13T11:22:53;100233.13;;;23.92;90.11
16580;BME280;8402;51.466;6.806;2023-10-13T11:25:25;100224.38;;;23.97;88.89
16580;BME280;8402;51.466;6.806;2023-10-13T11:28:13;100213.97;;;24.04;87.97
16580;BME280;8402;51.466;6.806;2023-10-13T11:30:48;100215.47;;;24.09;87.05
16580;BME280;8402;51.466;6.806;2023-10-13T11:33:19;100223.31;;;24.14;87.94
16580;BME280;8402;51.466;6.806;2023-10-13T11:35:51;100214.88;;;24.21;87.71
16580;BME280;8402;51.466;6.806;2023-10-13T11:38:32;100209.66;;;24.27;85.70
16580;BME280;8402;51.466;6.806;2023-10-13T11:41:10;100198.53;;;24.30;85.21
16580;BME280;8402;51.466;6.806;2023-10-13T11:43:49;100186.22;;;24.31;86.09
16580;BME280;8402;51.466;6.806;2023-10-13T11:46:33;100182.63;;;24.34;86.13
16580;BME280;8402;51.466;6.806;2023-10-13T11:49:23;100183.00;;;24.36;85.07
16580;BME280;8402;51.466;6.806;2023-10-13T11:52:06;100183.00;;;24.36;84.89
16580;BME280;8402;51.466;6.806;2023-10-13T11:54:53;100191.22;;;24.43;85.42
16580;BME280;8402;51.466;6.806;2023-10-13T11:57:23;100193.47;;;24.49;84.10
16580;BME280;8402;51.466;6.806;2023-10-13T11:59:56;100183.16;;;24.49;83.07
16580;BME280;8402;51.466;6.806;2023-10-13T12:02:46;100177.56;;;24.53;84.45
16580;BME280;8402;51.466;6.806;2023-10-13T12:05:28;100182.25;;;24.56;83.36
16580;BME280;8402;51.466;6.806;2023-10-13T12:08:16;100186.97;;;24.59;82.22
16580;BME280;8402;51.466;6.806;2023-10-13T12:10:50;100180.56;;;24.62;82.15
16580;BME280;8402;51.466;6.806;2023-10-13T12:13:27;100179.38;;;24.63;82.90
16580;BME280;8402;51.466;6.806;2023-10-13T12:16:00;100162.59;;;24.70;80.54
16580;BME280;8402;51.466;6.806;2023-10-13T12:18:35;100164.16;;;24.71;81.61
16580;BME280;8402;51.466;6.806;2023-10-13T12:21:08;100159.69;;;24.77;81.79
16580;BME280;8402;51.466;6.806;2023-10-13T12:23:46;100155.56;;;24.85;81.62
16580;BME280;8402;51.466;6.806;2023-10-13T12:26:17;100152.31;;;24.90;80.98
16580;BME280;8402;51.466;6.806;2023-10-13T12:28:59;100155.94;;;24.87;80.66
16580;BME280;8402;51.466;6.806;2023-10-13T12:31:36;100144.47;;;24.85;81.05
16580;BME280;8402;51.466;6.806;2023-10-13T12:34:06;100155.22;;;24.83;80.04
16580;BME280;8402;51.466;6.806;2023-10-13T12:36:44;100135.75;;;24.87;80.35
16580;BME280;8402;51.466;6.806;2023-10-13T12:39:20;100148.41;;;24.88;80.41
16580;BME280;8402;51.466;6.806;2023-10-13T12:42:02;100128.19;;;24.87;78.63
16580;BME280;8402;51.466;6.806;2023-10-13T12:44:47;100134.09;;;24.89;77.49
16580;BME280;8402;51.466;6.806;2023-10-13T12:47:32;100138.88;;;24.89;76.33
16580;BME280;8402;51.466;6.806;2023-10-13T12:50:15;100121.44;;;24.88;75.89
16580;BME280;8402;51.466;6.806;2023-10-13T12:53:01;100142.78;;;24.91;75.75
16580;BME280;8402;51.466;6.806;2023-10-13T12:55:31;100142.78;;;24.91;77.54
16580;BME280;8402;51.466;6.806;2023-10-13T12:58:05;100156.59;;;24.95;77.72
16580;BME280;8402;51.466;6.806;2023-10-13T13:00:35;100151.38;;;24.97;78.32
16580;BME280;8402;51.466;6.806;2023-10-13T13:03:09;100155.81;;;24.94;75.68
16580;BME280;8402;51.466;6.806;2023-10-13T13:05:40;100148.69;;;24.93;76.85
16580;BME280;8402;51.466;6.806;2023-10-13T13:08:14;100147.09;;;24.92;75.86
16580;BME280;8402;51.466;6.806;2023-10-13T13:10:49;100147.09;;;24.92;75.41
16580;BME280;8402;51.466;6.806;2023-10-13T13:13:19;100157.72;;;24.97;74.93
16580;BME280;8402;51.466;6.806;2023-10-13T13:15:54;100149.34;;;25.01;73.79
16580;BME280;8402;51.466;6.806;2023-10-13T13:18:27;100148.06;;;25.06;73.44
16580;BME280;8402;51.466;6.806;2023-10-13T13:20:57;100147.22;;;25.09;73.62
16580;BME280;8402;51.466;6.806;2023-10-13T13:23:28;100141.59;;;25.12;74.19
16580;BME280;8402;51.466;6.806;2023-10-13T13:25:59;100151.84;;;25.15;73.96
16580;BME280;8402;51.466;6.806;2023-10-13T13:28:29;100132.78;;;25.17;74.17
16580;BME280;8402;51.466;6.806;2023-10-13T13:31:05;100141.88;;;25.18;74.03
16580;BME280;8402;51.466;6.806;2023-10-13T13:33:37;100146.31;;;25.15;71.74
16580;BME280;8402;51.466;6.806;2023-10-13T13:36:10;100140.81;;;25.12;72.46
16580;BME280;8402;51.466;6.806;2023-10-13T13:38:43;100130.56;;;25.09;71.70
16580;BME280;8402;51.466;6.806;2023-10-13T13:41:17;100121.81;;;25.10;72.24
16580;BME280;8402;51.466;6.806;2023-10-13T13:43:48;100136.13;;;25.09;72.57
16580;BME280;8402;51.466;6.806;2023-10-13T13:46:25;100127.06;;;25.05;72.90
16580;BME280;8402;51.466;6.806;2023-10-13T13:49:03;100132.25;;;25.03;73.35